sensor_id;sensor_type;location;lat;lon;timestamp;P1;durP1;ratioP1;P2;durP2;ratioP2
25535;SDS011;13431;51.352;6.412;2022-08-25T00:01:34;4.10;;;3.42;;
25535;SDS011;13431;51.352;6.412;2022-08-25T00:04:06;3.17;;;2.97;;
25535;SDS011;13431;51.352;6.412;2022-08-25T00:06:37;3.05;;;2.50;;
25535;SDS011;13431;51.352;6.412;2022-08-25T00:09:06;3.95;;;3.00;;
25535;SDS011;13431;51.352;6.412;2022-08-25T00:11:39;4.28;;;2.92;;
25535;SDS011;13431;51.352;6.412;2022-08-25T00:14:09;4.38;;;3.00;;
25535;SDS011;13431;51.352;6.412;2022-08-25T00:16:39;5.55;;;3.03;;
25535;SDS011;13431;51.352;6.412;2022-08-25T00:19:09;2.85;;;2.58;;
25535;SDS011;13431;51.352;6.412;2022-08-25T00:21:40;6.75;;;3.00;;
25535;SDS011;13431;51.352;6.412;2022-08-25T00:24:09;6.43;;;3.10;;
25535;SDS011;13431;51.352;6.412;2022-08-25T00:26:39;9.40;;;2.58;;
25535;SDS011;13431;51.352;6.412;2022-08-25T00:29:08;6.45;;;3.05;;
25535;SDS011;13431;51.352;6.412;2022-08-25T00:31:36;8.93;;;2.85;;
25535;SDS011;13431;51.352;6.412;2022-08-25T00:34:09;5.22;;;2.90;;
25535;SDS011;13431;51.352;6.412;2022-08-25T00:36:40;6.38;;;2.70;;
25535;SDS011;13431;51.352;6.412;2022-08-25T00:39:09;3.83;;;2.72;;
25535;SDS011;13431;51.352;6.412;2022-08-25T00:41:38;4.15;;;2.58;;
25535;SDS011;13431;51.352;6.412;2022-08-25T00:44:08;6.53;;;2.38;;
25535;SDS011;13431;51.352;6.412;2022-08-25T00:46:39;5.72;;;2.85;;
25535;SDS011;13431;51.352;6.412;2022-08-25T00:51:56;11.13;;;3.20;;
25535;SDS011;13431;51.352;6.412;2022-08-25T00:54:28;3.92;;;2.58;;
25535;SDS011;13431;51.352;6.412;2022-08-25T00:57:02;6.63;;;2.45;;
25535;SDS011;13431;51.352;6.412;2022-08-25T00:59:32;5.13;;;2.47;;
25535;SDS011;13431;51.352;6.412;2022-08-25T01:02:00;2.90;;;2.33;;
25535;SDS011;13431;51.352;6.412;2022-08-25T01:04:30;2.53;;;2.33;;
25535;SDS011;13431;51.352;6.412;2022-08-25T01:06:57;4.35;;;2.75;;
25535;SDS011;13431;51.352;6.412;2022-08-25T01:09:27;3.92;;;2.78;;
25535;SDS011;13431;51.352;6.412;2022-08-25T01:11:58;4.70;;;2.30;;
25535;SDS011;13431;51.352;6.412;2022-08-25T01:14:26;4.35;;;2.75;;
25535;SDS011;13431;51.352;6.412;2022-08-25T01:16:57;2.40;;;2.20;;
25535;SDS011;13431;51.352;6.412;2022-08-25T01:19:25;4.60;;;2.53;;
25535;SDS011;13431;51.352;6.412;2022-08-25T01:21:54;8.35;;;2.92;;
25535;SDS011;13431;51.352;6.412;2022-08-25T01:27:13;4.50;;;2.65;;
25535;SDS011;13431;51.352;6.412;2022-08-25T01:29:40;4.32;;;2.78;;
25535;SDS011;13431;51.352;6.412;2022-08-25T01:32:10;2.95;;;2.35;;
25535;SDS011;13431;51.352;6.412;2022-08-25T01:34:40;5.78;;;2.60;;
25535;SDS011;13431;51.352;6.412;2022-08-25T01:37:09;4.75;;;1.98;;
25535;SDS011;13431;51.352;6.412;2022-08-25T01:39:39;8.95;;;3.13;;
25535;SDS011;13431;51.352;6.412;2022-08-25T01:44:36;2.50;;;2.30;;
25535;SDS011;13431;51.352;6.412;2022-08-25T01:47:05;6.20;;;2.55;;
25535;SDS011;13431;51.352;6.412;2022-08-25T01:49:33;5.35;;;2.38;;
25535;SDS011;13431;51.352;6.412;2022-08-25T01:54:32;15.57;;;2.70;;
25535;SDS011;13431;51.352;6.412;2022-08-25T01:56:59;5.63;;;2.47;;
25535;SDS011;13431;51.352;6.412;2022-08-25T01:59:27;6.07;;;2.40;;
25535;SDS011;13431;51.352;6.412;2022-08-25T02:01:54;7.45;;;2.25;;
25535;SDS011;13431;51.352;6.412;2022-08-25T02:04:26;2.65;;;2.17;;
25535;SDS011;13431;51.352;6.412;2022-08-25T02:07:02;3.60;;;2.70;;
25535;SDS011;13431;51.352;6.412;2022-08-25T02:09:32;3.05;;;2.55;;
25535;SDS011;13431;51.352;6.412;2022-08-25T02:11:59;4.50;;;2.72;;
25535;SDS011;13431;51.352;6.412;2022-08-25T02:14:28;3.40;;;2.42;;
25535;SDS011;13431;51.352;6.412;2022-08-25T02:16:55;3.85;;;2.58;;
25535;SDS011;13431;51.352;6.412;2022-08-25T02:19:23;4.13;;;2.25;;
25535;SDS011;13431;51.352;6.412;2022-08-25T02:21:52;3.63;;;2.30;;
25535;SDS011;13431;51.352;6.412;2022-08-25T02:24:19;4.30;;;2.90;;
25535;SDS011;13431;51.352;6.412;2022-08-25T02:26:47;3.25;;;2.40;;
25535;SDS011;13431;51.352;6.412;2022-08-25T02:29:15;3.35;;;2.28;;
25535;SDS011;13431;51.352;6.412;2022-08-25T02:31:43;3.78;;;2.20;;
25535;SDS011;13431;51.352;6.412;2022-08-25T02:34:10;4.05;;;2.38;;
25535;SDS011;13431;51.352;6.412;2022-08-25T02:36:38;7.65;;;2.15;;
25535;SDS011;13431;51.352;6.412;2022-08-25T02:39:06;3.47;;;2.50;;
25535;SDS011;13431;51.352;6.412;2022-08-25T02:41:34;3.10;;;2.30;;
25535;SDS011;13431;51.352;6.412;2022-08-25T02:44:02;6.00;;;2.75;;
25535;SDS011;13431;51.352;6.412;2022-08-25T02:46:30;2.72;;;2.13;;
25535;SDS011;13431;51.352;6.412;2022-08-25T02:48:58;7.47;;;2.45;;
25535;SDS011;13431;51.352;6.412;2022-08-25T02:51:26;3.00;;;2.60;;
25535;SDS011;13431;51.352;6.412;2022-08-25T02:53:57;4.07;;;2.58;;
25535;SDS011;13431;51.352;6.412;2022-08-25T02:56:25;3.35;;;2.60;;
25535;SDS011;13431;51.352;6.412;2022-08-25T02:58:53;3.30;;;2.70;;
25535;SDS011;13431;51.352;6.412;2022-08-25T03:01:22;5.70;;;2.75;;
25535;SDS011;13431;51.352;6.412;2022-08-25T03:03:54;2.78;;;2.58;;
25535;SDS011;13431;51.352;6.412;2022-08-25T03:06:22;5.45;;;2.80;;
25535;SDS011;13431;51.352;6.412;2022-08-25T03:08:56;3.88;;;2.30;;
25535;SDS011;13431;51.352;6.412;2022-08-25T03:11:24;4.38;;;2.60;;
25535;SDS011;13431;51.352;6.412;2022-08-25T03:13:52;5.38;;;3.17;;
25535;SDS011;13431;51.352;6.412;2022-08-25T03:16:20;4.15;;;2.80;;
25535;SDS011;13431;51.352;6.412;2022-08-25T03:18:47;2.85;;;2.33;;
25535;SDS011;13431;51.352;6.412;2022-08-25T03:21:16;5.38;;;2.83;;
25535;SDS011;13431;51.352;6.412;2022-08-25T03:23:44;4.80;;;3.05;;
25535;SDS011;13431;51.352;6.412;2022-08-25T03:26:11;5.90;;;2.85;;
25535;SDS011;13431;51.352;6.412;2022-08-25T03:28:58;3.75;;;2.85;;
25535;SDS011;13431;51.352;6.412;2022-08-25T03:31:31;3.42;;;2.75;;
25535;SDS011;13431;51.352;6.412;2022-08-25T03:34:00;4.70;;;2.83;;
25535;SDS011;13431;51.352;6.412;2022-08-25T03:36:28;5.53;;;2.92;;
25535;SDS011;13431;51.352;6.412;2022-08-25T03:38:55;4.55;;;3.08;;
25535;SDS011;13431;51.352;6.412;2022-08-25T03:41:26;4.45;;;3.40;;
25535;SDS011;13431;51.352;6.412;2022-08-25T03:43:56;4.20;;;3.28;;
25535;SDS011;13431;51.352;6.412;2022-08-25T03:46:28;7.03;;;3.20;;
25535;SDS011;13431;51.352;6.412;2022-08-25T03:48:58;3.78;;;3.15;;
25535;SDS011;13431;51.352;6.412;2022-08-25T03:51:29;4.10;;;3.05;;
25535;SDS011;13431;51.352;6.412;2022-08-25T03:53:58;7.03;;;3.70;;
25535;SDS011;13431;51.352;6.412;2022-08-25T03:56:29;9.50;;;3.55;;
25535;SDS011;13431;51.352;6.412;2022-08-25T03:58:58;6.43;;;3.47;;
25535;SDS011;13431;51.352;6.412;2022-08-25T04:01:25;4.88;;;3.30;;
25535;SDS011;13431;51.352;6.412;2022-08-25T04:03:54;5.15;;;3.20;;
25535;SDS011;13431;51.352;6.412;2022-08-25T04:06:22;5.28;;;3.42;;
25535;SDS011;13431;51.352;6.412;2022-08-25T04:08:49;4.25;;;3.85;;
25535;SDS011;13431;51.352;6.412;2022-08-25T04:11:19;8.18;;;4.25;;
25535;SDS011;13431;51.352;6.412;2022-08-25T04:13:48;7.93;;;4.15;;
25535;SDS011;13431;51.352;6.412;2022-08-25T04:16:18;7.85;;;3.95;;
25535;SDS011;13431;51.352;6.412;2022-08-25T04:18:48;6.78;;;3.75;;
25535;SDS011;13431;51.352;6.412;2022-08-25T04:21:17;6.80;;;3.80;;
25535;SDS011;13431;51.352;6.412;2022-08-25T04:23:46;5.65;;;4.10;;
25535;SDS011;13431;51.352;6.412;2022-08-25T04:26:20;5.40;;;3.70;;
25535;SDS011;13431;51.352;6.412;2022-08-25T04:28:49;10.88;;;3.63;;
25535;SDS011;13431;51.352;6.412;2022-08-25T04:31:17;8.57;;;4.22;;
25535;SDS011;13431;51.352;6.412;2022-08-25T04:33:45;9.05;;;4.57;;
25535;SDS011;13431;51.352;6.412;2022-08-25T04:36:14;5.40;;;3.25;;
25535;SDS011;13431;51.352;6.412;2022-08-25T04:38:43;5.63;;;4.13;;
25535;SDS011;13431;51.352;6.412;2022-08-25T04:41:11;5.57;;;3.90;;
25535;SDS011;13431;51.352;6.412;2022-08-25T04:43:40;8.70;;;4.07;;
25535;SDS011;13431;51.352;6.412;2022-08-25T04:46:19;8.27;;;4.22;;
25535;SDS011;13431;51.352;6.412;2022-08-25T04:48:50;7.25;;;3.78;;
25535;SDS011;13431;51.352;6.412;2022-08-25T04:51:20;14.85;;;4.53;;
25535;SDS011;13431;51.352;6.412;2022-08-25T04:53:50;9.05;;;3.65;;
25535;SDS011;13431;51.352;6.412;2022-08-25T04:56:19;10.85;;;3.75;;
25535;SDS011;13431;51.352;6.412;2022-08-25T04:58:51;9.32;;;4.35;;
25535;SDS011;13431;51.352;6.412;2022-08-25T05:01:20;11.98;;;4.28;;
25535;SDS011;13431;51.352;6.412;2022-08-25T05:03:57;5.70;;;3.45;;
25535;SDS011;13431;51.352;6.412;2022-08-25T05:06:26;10.48;;;3.67;;
25535;SDS011;13431;51.352;6.412;2022-08-25T05:08:56;6.80;;;3.72;;
25535;SDS011;13431;51.352;6.412;2022-08-25T05:11:24;8.40;;;3.35;;
25535;SDS011;13431;51.352;6.412;2022-08-25T05:13:53;8.27;;;3.67;;
25535;SDS011;13431;51.352;6.412;2022-08-25T05:16:23;9.57;;;3.40;;
25535;SDS011;13431;51.352;6.412;2022-08-25T05:18:51;6.85;;;3.28;;
25535;SDS011;13431;51.352;6.412;2022-08-25T05:21:21;4.53;;;3.63;;
25535;SDS011;13431;51.352;6.412;2022-08-25T05:23:54;5.47;;;3.17;;
25535;SDS011;13431;51.352;6.412;2022-08-25T05:26:23;12.52;;;3.45;;
25535;SDS011;13431;51.352;6.412;2022-08-25T05:28:56;5.22;;;3.30;;
25535;SDS011;13431;51.352;6.412;2022-08-25T05:31:25;7.93;;;3.00;;
25535;SDS011;13431;51.352;6.412;2022-08-25T05:33:53;5.55;;;3.38;;
25535;SDS011;13431;51.352;6.412;2022-08-25T05:36:22;5.10;;;3.47;;
25535;SDS011;13431;51.352;6.412;2022-08-25T05:38:50;8.10;;;3.30;;
25535;SDS011;13431;51.352;6.412;2022-08-25T05:41:20;6.45;;;3.75;;
25535;SDS011;13431;51.352;6.412;2022-08-25T05:43:51;6.20;;;3.55;;
25535;SDS011;13431;51.352;6.412;2022-08-25T05:46:19;8.75;;;3.45;;
25535;SDS011;13431;51.352;6.412;2022-08-25T05:48:48;7.85;;;3.78;;
25535;SDS011;13431;51.352;6.412;2022-08-25T05:51:16;6.72;;;3.75;;
25535;SDS011;13431;51.352;6.412;2022-08-25T05:53:46;9.13;;;3.95;;
25535;SDS011;13431;51.352;6.412;2022-08-25T05:56:15;5.47;;;3.78;;
25535;SDS011;13431;51.352;6.412;2022-08-25T05:58:44;6.15;;;3.65;;
25535;SDS011;13431;51.352;6.412;2022-08-25T06:01:18;5.95;;;3.58;;
25535;SDS011;13431;51.352;6.412;2022-08-25T06:04:26;7.10;;;3.65;;
25535;SDS011;13431;51.352;6.412;2022-08-25T06:06:53;5.93;;;3.35;;
25535;SDS011;13431;51.352;6.412;2022-08-25T06:09:21;8.80;;;4.00;;
25535;SDS011;13431;51.352;6.412;2022-08-25T06:11:50;6.18;;;3.50;;
25535;SDS011;13431;51.352;6.412;2022-08-25T06:14:21;7.38;;;3.60;;
25535;SDS011;13431;51.352;6.412;2022-08-25T06:16:50;6.38;;;4.00;;
25535;SDS011;13431;51.352;6.412;2022-08-25T06:19:17;8.18;;;3.47;;
25535;SDS011;13431;51.352;6.412;2022-08-25T06:21:45;5.13;;;3.80;;
25535;SDS011;13431;51.352;6.412;2022-08-25T06:24:12;4.18;;;3.78;;
25535;SDS011;13431;51.352;6.412;2022-08-25T06:26:41;7.78;;;3.50;;
25535;SDS011;13431;51.352;6.412;2022-08-25T06:29:10;4.68;;;3.47;;
25535;SDS011;13431;51.352;6.412;2022-08-25T06:31:41;7.63;;;4.32;;
25535;SDS011;13431;51.352;6.412;2022-08-25T06:34:10;9.68;;;3.47;;
25535;SDS011;13431;51.352;6.412;2022-08-25T06:36:38;7.88;;;4.03;;
25535;SDS011;13431;51.352;6.412;2022-08-25T06:39:06;9.52;;;4.05;;
25535;SDS011;13431;51.352;6.412;2022-08-25T06:41:36;5.78;;;3.22;;
25535;SDS011;13431;51.352;6.412;2022-08-25T06:44:04;8.38;;;3.67;;
25535;SDS011;13431;51.352;6.412;2022-08-25T06:46:32;4.45;;;3.75;;
25535;SDS011;13431;51.352;6.412;2022-08-25T06:49:03;7.97;;;3.90;;
25535;SDS011;13431;51.352;6.412;2022-08-25T06:51:32;7.57;;;3.72;;
25535;SDS011;13431;51.352;6.412;2022-08-25T06:54:03;6.75;;;3.90;;
25535;SDS011;13431;51.352;6.412;2022-08-25T06:56:32;9.55;;;3.83;;
25535;SDS011;13431;51.352;6.412;2022-08-25T06:59:00;5.30;;;3.78;;
25535;SDS011;13431;51.352;6.412;2022-08-25T07:01:32;8.48;;;3.58;;
25535;SDS011;13431;51.352;6.412;2022-08-25T07:04:01;6.35;;;3.70;;
25535;SDS011;13431;51.352;6.412;2022-08-25T07:06:35;5.55;;;3.83;;
25535;SDS011;13431;51.352;6.412;2022-08-25T07:09:04;9.77;;;4.22;;
25535;SDS011;13431;51.352;6.412;2022-08-25T07:11:33;6.32;;;3.78;;
25535;SDS011;13431;51.352;6.412;2022-08-25T07:14:01;7.28;;;3.78;;
25535;SDS011;13431;51.352;6.412;2022-08-25T07:16:29;9.13;;;4.22;;
25535;SDS011;13431;51.352;6.412;2022-08-25T07:18:58;5.20;;;3.60;;
25535;SDS011;13431;51.352;6.412;2022-08-25T07:21:28;8.32;;;3.70;;
25535;SDS011;13431;51.352;6.412;2022-08-25T07:26:37;8.35;;;4.32;;
25535;SDS011;13431;51.352;6.412;2022-08-25T07:29:11;6.13;;;3.92;;
25535;SDS011;13431;51.352;6.412;2022-08-25T07:31:41;7.35;;;4.03;;
25535;SDS011;13431;51.352;6.412;2022-08-25T07:34:09;16.00;;;4.28;;
25535;SDS011;13431;51.352;6.412;2022-08-25T07:36:55;5.18;;;3.28;;
25535;SDS011;13431;51.352;6.412;2022-08-25T07:39:26;4.28;;;3.65;;
25535;SDS011;13431;51.352;6.412;2022-08-25T07:41:55;5.63;;;3.70;;
25535;SDS011;13431;51.352;6.412;2022-08-25T07:44:23;7.35;;;3.47;;
25535;SDS011;13431;51.352;6.412;2022-08-25T07:46:53;7.15;;;3.70;;
25535;SDS011;13431;51.352;6.412;2022-08-25T07:49:22;7.38;;;4.70;;
25535;SDS011;13431;51.352;6.412;2022-08-25T07:51:51;6.50;;;3.85;;
25535;SDS011;13431;51.352;6.412;2022-08-25T07:54:32;6.18;;;4.45;;
25535;SDS011;13431;51.352;6.412;2022-08-25T07:57:05;7.28;;;4.20;;
25535;SDS011;13431;51.352;6.412;2022-08-25T07:59:34;6.97;;;4.22;;
25535;SDS011;13431;51.352;6.412;2022-08-25T08:02:07;6.75;;;4.15;;
25535;SDS011;13431;51.352;6.412;2022-08-25T08:04:45;6.35;;;4.20;;
25535;SDS011;13431;51.352;6.412;2022-08-25T08:07:19;6.22;;;4.95;;
25535;SDS011;13431;51.352;6.412;2022-08-25T08:09:49;6.40;;;4.78;;
25535;SDS011;13431;51.352;6.412;2022-08-25T08:12:37;7.80;;;4.68;;
25535;SDS011;13431;51.352;6.412;2022-08-25T08:15:08;6.63;;;4.10;;
25535;SDS011;13431;51.352;6.412;2022-08-25T08:17:36;6.45;;;4.28;;
25535;SDS011;13431;51.352;6.412;2022-08-25T08:20:06;5.28;;;4.40;;
25535;SDS011;13431;51.352;6.412;2022-08-25T08:22:37;5.47;;;3.95;;
25535;SDS011;13431;51.352;6.412;2022-08-25T08:25:08;11.30;;;5.07;;
25535;SDS011;13431;51.352;6.412;2022-08-25T08:27:43;9.48;;;4.40;;
25535;SDS011;13431;51.352;6.412;2022-08-25T08:30:12;5.43;;;4.22;;
25535;SDS011;13431;51.352;6.412;2022-08-25T08:32:39;3.90;;;3.58;;
25535;SDS011;13431;51.352;6.412;2022-08-25T08:35:27;5.68;;;4.20;;
25535;SDS011;13431;51.352;6.412;2022-08-25T08:37:54;4.57;;;4.10;;
25535;SDS011;13431;51.352;6.412;2022-08-25T08:40:22;8.02;;;4.75;;
25535;SDS011;13431;51.352;6.412;2022-08-25T08:42:53;12.05;;;4.60;;
25535;SDS011;13431;51.352;6.412;2022-08-25T08:45:47;7.32;;;3.80;;
25535;SDS011;13431;51.352;6.412;2022-08-25T08:51:32;9.00;;;4.10;;
25535;SDS011;13431;51.352;6.412;2022-08-25T08:54:18;7.03;;;4.40;;
25535;SDS011;13431;51.352;6.412;2022-08-25T08:56:56;4.45;;;4.05;;
25535;SDS011;13431;51.352;6.412;2022-08-25T08:59:44;5.07;;;3.90;;
25535;SDS011;13431;51.352;6.412;2022-08-25T09:02:32;5.15;;;4.22;;
25535;SDS011;13431;51.352;6.412;2022-08-25T09:05:18;4.57;;;4.20;;
25535;SDS011;13431;51.352;6.412;2022-08-25T09:07:53;5.22;;;4.30;;
25535;SDS011;13431;51.352;6.412;2022-08-25T09:10:24;7.35;;;4.75;;
25535;SDS011;13431;51.352;6.412;2022-08-25T09:13:01;4.13;;;3.83;;
25535;SDS011;13431;51.352;6.412;2022-08-25T09:21:56;4.88;;;4.40;;
25535;SDS011;13431;51.352;6.412;2022-08-25T09:33:24;6.70;;;3.92;;
25535;SDS011;13431;51.352;6.412;2022-08-25T09:35:54;4.75;;;4.10;;
25535;SDS011;13431;51.352;6.412;2022-08-25T09:38:23;9.20;;;4.47;;
25535;SDS011;13431;51.352;6.412;2022-08-25T09:40:56;5.38;;;4.00;;
25535;SDS011;13431;51.352;6.412;2022-08-25T09:43:34;8.23;;;4.10;;
25535;SDS011;13431;51.352;6.412;2022-08-25T09:46:12;5.43;;;4.65;;
25535;SDS011;13431;51.352;6.412;2022-08-25T09:56:23;5.30;;;3.88;;
25535;SDS011;13431;51.352;6.412;2022-08-25T09:58:54;6.13;;;4.20;;
25535;SDS011;13431;51.352;6.412;2022-08-25T10:01:28;7.18;;;4.40;;
25535;SDS011;13431;51.352;6.412;2022-08-25T10:04:04;5.60;;;5.10;;
25535;SDS011;13431;51.352;6.412;2022-08-25T10:06:43;5.40;;;4.40;;
25535;SDS011;13431;51.352;6.412;2022-08-25T10:09:20;4.68;;;4.28;;
25535;SDS011;13431;51.352;6.412;2022-08-25T10:11:52;6.00;;;4.00;;
25535;SDS011;13431;51.352;6.412;2022-08-25T10:17:16;9.63;;;4.30;;
25535;SDS011;13431;51.352;6.412;2022-08-25T10:23:08;4.70;;;4.30;;
25535;SDS011;13431;51.352;6.412;2022-08-25T10:25:40;4.50;;;4.10;;
25535;SDS011;13431;51.352;6.412;2022-08-25T10:28:29;4.57;;;4.18;;
25535;SDS011;13431;51.352;6.412;2022-08-25T10:31:18;6.60;;;4.18;;
25535;SDS011;13431;51.352;6.412;2022-08-25T10:40:08;11.00;;;3.95;;
25535;SDS011;13431;51.352;6.412;2022-08-25T10:43:03;3.45;;;3.15;;
25535;SDS011;13431;51.352;6.412;2022-08-25T10:51:35;5.68;;;4.07;;
25535;SDS011;13431;51.352;6.412;2022-08-25T10:57:18;4.80;;;3.50;;
25535;SDS011;13431;51.352;6.412;2022-08-25T10:59:58;12.85;;;3.70;;
25535;SDS011;13431;51.352;6.412;2022-08-25T11:05:15;3.60;;;3.30;;
25535;SDS011;13431;51.352;6.412;2022-08-25T11:07:56;8.63;;;3.65;;
25535;SDS011;13431;51.352;6.412;2022-08-25T11:13:30;3.75;;;3.17;;
25535;SDS011;13431;51.352;6.412;2022-08-25T11:16:08;4.53;;;3.38;;
25535;SDS011;13431;51.352;6.412;2022-08-25T11:18:52;4.18;;;3.40;;
25535;SDS011;13431;51.352;6.412;2022-08-25T11:21:40;3.90;;;3.25;;
25535;SDS011;13431;51.352;6.412;2022-08-25T11:27:04;3.28;;;2.97;;
25535;SDS011;13431;51.352;6.412;2022-08-25T11:29:39;4.15;;;3.20;;
25535;SDS011;13431;51.352;6.412;2022-08-25T11:32:09;3.78;;;2.65;;
25535;SDS011;13431;51.352;6.412;2022-08-25T11:34:37;4.30;;;3.10;;
25535;SDS011;13431;51.352;6.412;2022-08-25T11:37:20;4.18;;;3.35;;
25535;SDS011;13431;51.352;6.412;2022-08-25T11:51:11;3.47;;;3.17;;
25535;SDS011;13431;51.352;6.412;2022-08-25T11:56:50;3.67;;;3.03;;
25535;SDS011;13431;51.352;6.412;2022-08-25T12:04:59;4.55;;;2.83;;
25535;SDS011;13431;51.352;6.412;2022-08-25T12:07:29;6.53;;;2.80;;
25535;SDS011;13431;51.352;6.412;2022-08-25T12:10:17;9.93;;;3.20;;
25535;SDS011;13431;51.352;6.412;2022-08-25T12:13:03;4.13;;;3.45;;
25535;SDS011;13431;51.352;6.412;2022-08-25T12:23:37;1.83;;;1.73;;
25535;SDS011;13431;51.352;6.412;2022-08-25T12:28:47;2.13;;;2.03;;
25535;SDS011;13431;51.352;6.412;2022-08-25T12:37:11;2.50;;;2.30;;
25535;SDS011;13431;51.352;6.412;2022-08-25T12:47:53;2.38;;;1.95;;
25535;SDS011;13431;51.352;6.412;2022-08-25T12:50:40;4.82;;;2.00;;
25535;SDS011;13431;51.352;6.412;2022-08-25T12:56:05;2.92;;;2.70;;
25535;SDS011;13431;51.352;6.412;2022-08-25T12:58:48;2.50;;;2.30;;
25535;SDS011;13431;51.352;6.412;2022-08-25T13:12:01;2.10;;;2.00;;
25535;SDS011;13431;51.352;6.412;2022-08-25T13:14:38;3.50;;;2.00;;
25535;SDS011;13431;51.352;6.412;2022-08-25T13:17:09;2.25;;;2.08;;
25535;SDS011;13431;51.352;6.412;2022-08-25T13:19:37;8.43;;;2.42;;
25535;SDS011;13431;51.352;6.412;2022-08-25T13:22:12;2.47;;;2.08;;
25535;SDS011;13431;51.352;6.412;2022-08-25T13:24:43;8.25;;;2.80;;
25535;SDS011;13431;51.352;6.412;2022-08-25T13:27:25;3.08;;;2.80;;
25535;SDS011;13431;51.352;6.412;2022-08-25T13:29:55;3.28;;;2.50;;
25535;SDS011;13431;51.352;6.412;2022-08-25T13:32:30;4.68;;;2.58;;
25535;SDS011;13431;51.352;6.412;2022-08-25T13:35:11;4.22;;;2.38;;
25535;SDS011;13431;51.352;6.412;2022-08-25T13:37:45;3.30;;;2.67;;
25535;SDS011;13431;51.352;6.412;2022-08-25T13:42:46;4.30;;;2.70;;
25535;SDS011;13431;51.352;6.412;2022-08-25T13:45:22;3.65;;;2.55;;
25535;SDS011;13431;51.352;6.412;2022-08-25T13:47:52;5.57;;;2.58;;
25535;SDS011;13431;51.352;6.412;2022-08-25T13:52:53;5.05;;;2.63;;
25535;SDS011;13431;51.352;6.412;2022-08-25T13:58:18;2.65;;;2.13;;
25535;SDS011;13431;51.352;6.412;2022-08-25T14:01:11;2.60;;;2.40;;
25535;SDS011;13431;51.352;6.412;2022-08-25T14:10:02;2.65;;;2.13;;
25535;SDS011;13431;51.352;6.412;2022-08-25T14:17:47;2.40;;;2.20;;
25535;SDS011;13431;51.352;6.412;2022-08-25T14:20:27;3.40;;;2.25;;
25535;SDS011;13431;51.352;6.412;2022-08-25T14:22:58;3.67;;;2.50;;
25535;SDS011;13431;51.352;6.412;2022-08-25T14:25:28;2.88;;;2.38;;
25535;SDS011;13431;51.352;6.412;2022-08-25T14:27:57;2.72;;;2.13;;
25535;SDS011;13431;51.352;6.412;2022-08-25T14:30:38;2.30;;;2.10;;
25535;SDS011;13431;51.352;6.412;2022-08-25T14:33:12;4.05;;;2.25;;
25535;SDS011;13431;51.352;6.412;2022-08-25T14:35:42;4.68;;;1.83;;
25535;SDS011;13431;51.352;6.412;2022-08-25T14:38:13;4.70;;;2.20;;
25535;SDS011;13431;51.352;6.412;2022-08-25T14:40:43;2.10;;;2.00;;
25535;SDS011;13431;51.352;6.412;2022-08-25T14:43:11;5.35;;;2.50;;
25535;SDS011;13431;51.352;6.412;2022-08-25T14:45:39;3.25;;;2.03;;
25535;SDS011;13431;51.352;6.412;2022-08-25T14:48:09;3.38;;;2.00;;
25535;SDS011;13431;51.352;6.412;2022-08-25T14:50:43;2.40;;;2.20;;
25535;SDS011;13431;51.352;6.412;2022-08-25T14:53:11;2.28;;;2.15;;
25535;SDS011;13431;51.352;6.412;2022-08-25T14:55:39;6.07;;;2.58;;
25535;SDS011;13431;51.352;6.412;2022-08-25T14:58:06;4.05;;;2.58;;
25535;SDS011;13431;51.352;6.412;2022-08-25T15:00:39;5.55;;;2.70;;
25535;SDS011;13431;51.352;6.412;2022-08-25T15:03:14;2.50;;;2.30;;
25535;SDS011;13431;51.352;6.412;2022-08-25T15:05:46;10.18;;;2.55;;
25535;SDS011;13431;51.352;6.412;2022-08-25T15:08:13;3.88;;;2.13;;
25535;SDS011;13431;51.352;6.412;2022-08-25T15:10:59;3.17;;;2.00;;
25535;SDS011;13431;51.352;6.412;2022-08-25T15:13:34;2.20;;;2.10;;
25535;SDS011;13431;51.352;6.412;2022-08-25T15:16:02;4.15;;;2.20;;
25535;SDS011;13431;51.352;6.412;2022-08-25T15:18:30;3.38;;;2.30;;
25535;SDS011;13431;51.352;6.412;2022-08-25T15:20:58;3.75;;;2.30;;
25535;SDS011;13431;51.352;6.412;2022-08-25T15:23:27;4.07;;;2.70;;
25535;SDS011;13431;51.352;6.412;2022-08-25T15:25:55;2.47;;;2.22;;
25535;SDS011;13431;51.352;6.412;2022-08-25T15:28:22;3.28;;;2.17;;
25535;SDS011;13431;51.352;6.412;2022-08-25T15:30:52;4.47;;;2.05;;
25535;SDS011;13431;51.352;6.412;2022-08-25T15:33:19;2.13;;;1.83;;
25535;SDS011;13431;51.352;6.412;2022-08-25T15:35:48;2.58;;;2.03;;
25535;SDS011;13431;51.352;6.412;2022-08-25T15:38:17;4.28;;;2.15;;
25535;SDS011;13431;51.352;6.412;2022-08-25T15:40:44;4.03;;;2.15;;
25535;SDS011;13431;51.352;6.412;2022-08-25T15:43:12;2.92;;;2.47;;
25535;SDS011;13431;51.352;6.412;2022-08-25T15:45:39;2.92;;;2.20;;
25535;SDS011;13431;51.352;6.412;2022-08-25T15:48:07;5.97;;;2.15;;
25535;SDS011;13431;51.352;6.412;2022-08-25T15:50:35;6.40;;;2.22;;
25535;SDS011;13431;51.352;6.412;2022-08-25T15:53:04;4.45;;;2.20;;
25535;SDS011;13431;51.352;6.412;2022-08-25T15:55:37;2.50;;;2.30;;
25535;SDS011;13431;51.352;6.412;2022-08-25T15:58:06;6.38;;;2.63;;
25535;SDS011;13431;51.352;6.412;2022-08-25T16:00:35;2.35;;;2.10;;
25535;SDS011;13431;51.352;6.412;2022-08-25T16:03:03;5.53;;;2.10;;
25535;SDS011;13431;51.352;6.412;2022-08-25T16:05:34;3.45;;;2.20;;
25535;SDS011;13431;51.352;6.412;2022-08-25T16:08:03;2.83;;;2.45;;
25535;SDS011;13431;51.352;6.412;2022-08-25T16:10:35;3.67;;;2.30;;
25535;SDS011;13431;51.352;6.412;2022-08-25T16:13:06;3.20;;;2.22;;
25535;SDS011;13431;51.352;6.412;2022-08-25T16:15:35;4.43;;;2.00;;
25535;SDS011;13431;51.352;6.412;2022-08-25T16:18:04;5.40;;;2.60;;
25535;SDS011;13431;51.352;6.412;2022-08-25T16:20:34;2.40;;;2.13;;
25535;SDS011;13431;51.352;6.412;2022-08-25T16:23:02;3.00;;;2.00;;
25535;SDS011;13431;51.352;6.412;2022-08-25T16:25:30;4.50;;;2.17;;
25535;SDS011;13431;51.352;6.412;2022-08-25T16:27:57;2.55;;;2.00;;
25535;SDS011;13431;51.352;6.412;2022-08-25T16:30:25;5.63;;;2.20;;
25535;SDS011;13431;51.352;6.412;2022-08-25T16:32:52;2.33;;;2.13;;
25535;SDS011;13431;51.352;6.412;2022-08-25T16:35:20;3.97;;;2.20;;
25535;SDS011;13431;51.352;6.412;2022-08-25T16:37:47;2.22;;;2.03;;
25535;SDS011;13431;51.352;6.412;2022-08-25T16:40:15;7.38;;;2.40;;
25535;SDS011;13431;51.352;6.412;2022-08-25T16:42:45;2.53;;;2.25;;
25535;SDS011;13431;51.352;6.412;2022-08-25T16:45:13;2.42;;;2.22;;
25535;SDS011;13431;51.352;6.412;2022-08-25T16:47:40;2.38;;;2.13;;
25535;SDS011;13431;51.352;6.412;2022-08-25T16:50:09;2.38;;;1.90;;
25535;SDS011;13431;51.352;6.412;2022-08-25T16:52:37;2.95;;;2.13;;
25535;SDS011;13431;51.352;6.412;2022-08-25T16:55:25;2.92;;;2.25;;
25535;SDS011;13431;51.352;6.412;2022-08-25T16:58:05;2.75;;;2.08;;
25535;SDS011;13431;51.352;6.412;2022-08-25T17:00:34;3.45;;;2.30;;
25535;SDS011;13431;51.352;6.412;2022-08-25T17:03:05;6.55;;;2.25;;
25535;SDS011;13431;51.352;6.412;2022-08-25T17:05:38;3.05;;;2.20;;
25535;SDS011;13431;51.352;6.412;2022-08-25T17:08:07;5.18;;;2.35;;
25535;SDS011;13431;51.352;6.412;2022-08-25T17:10:53;2.50;;;2.30;;
25535;SDS011;13431;51.352;6.412;2022-08-25T17:13:35;4.22;;;2.35;;
25535;SDS011;13431;51.352;6.412;2022-08-25T17:16:04;6.55;;;2.45;;
25535;SDS011;13431;51.352;6.412;2022-08-25T17:18:33;4.35;;;2.40;;
25535;SDS011;13431;51.352;6.412;2022-08-25T17:21:07;3.33;;;1.90;;
25535;SDS011;13431;51.352;6.412;2022-08-25T17:23:45;4.63;;;2.78;;
25535;SDS011;13431;51.352;6.412;2022-08-25T17:26:14;2.78;;;2.38;;
25535;SDS011;13431;51.352;6.412;2022-08-25T17:28:43;2.95;;;2.33;;
25535;SDS011;13431;51.352;6.412;2022-08-25T17:31:11;2.30;;;2.03;;
25535;SDS011;13431;51.352;6.412;2022-08-25T17:33:41;4.30;;;2.20;;
25535;SDS011;13431;51.352;6.412;2022-08-25T17:36:09;5.10;;;2.33;;
25535;SDS011;13431;51.352;6.412;2022-08-25T17:38:42;2.47;;;2.28;;
25535;SDS011;13431;51.352;6.412;2022-08-25T17:41:11;2.45;;;2.25;;